AirNav   Everest Fuels
 
 528 users online  

WI40 Spiegel Field Airport
Oregon, Wisconsin, USA

GOING TO OREGON?


FAA INFORMATION EFFECTIVE 26 JANUARY 2023

Location

FAA Identifier: WI40
Lat/Long: 42-54-48.0000N 089-21-08.4300W
42-54.800000N 089-21.140500W
42.9133333,-89.3523417
(estimated)
Elevation: 960 ft. / 293 m (estimated)
Variation: 01W (1995)
From city: 2 miles SE of OREGON, WI
Time zone: UTC -6 (UTC -5 during Daylight Saving Time)
Zip code: 53575

Airport Operations

Airport use: Private use. Permission required prior to landing
Activation date: 05/2000
Control tower: no
ARTCC: CHICAGO CENTER
FSS: GREEN BAY FLIGHT SERVICE STATION
Attendance: UNATNDD
Segmented circle: no

Airport Communications

WX ASOS at MSN (14 nm N): PHONE 608-249-0615
WX AWOS-3 at C29 (14 nm NW): 118.675 (608-833-1686)

Nearby radio navigation aids

VOR radial/distance  VOR name  Freq  Var
MSNr179/13.9MADISON VORTAC108.6003E
JVLr330/23.9JANESVILLE VOR/DME114.3003E

 
NDB name  Hdg/Dist  Freq  Var  ID
ROCK RIVER241/31.637101WRYV .-. -.-- ...-

Airport Services

Runway Information

Runway 5/23

Dimensions: 2100 x 75 ft. / 640 x 23 m
Surface: turf
RUNWAY 5  RUNWAY 23
Traffic pattern: leftleft
Obstructions: 20 ft. pline, 500 ft. from runway30 ft. trees, 280 ft. from runway

Airport Ownership and Management from official FAA records

Ownership: Privately-owned
Owner: BERNARD SPIEGEL
4491 HILL RD
OREGON, WI 53575
Phone 608-575-7330
Manager: BERNARD SPIEGEL
4491 HILL RD
OREGON, WI 53575
Phone 608-575-7330

Airport Operational Statistics

Aircraft based on the field: 1
Single engine airplanes: 1
    

Additional Remarks

FOR CD CTC CHICAGO ARTCC AT 630-906-8921.

Instrument Procedures

There are no published instrument procedures at WI40.

Some nearby airports with instrument procedures:

KMSN - Dane County Regional Airport-Truax Field (14 nm N)
87Y - Blackhawk Airfield (14 nm NE)
C29 - Middleton Municipal Airport - Morey Field (14 nm NW)
KEFT - Monroe Municipal Airport (21 nm SW)
KJVL - Southern Wisconsin Regional Airport (22 nm SE)
 
Loc | Ops | Rwys | IFR | FBO | Links
Com | Nav | Svcs | Stats | Notes
Area around WI40 (Spiegel Field Airport)
 
Road maps at: MapQuest Bing Google
 
Aerial photo
No photo
 
Sectional chart

 
Airport distance calculator
Flying to Spiegel Field Airport? Find the distance to fly.

From to WI40

Sunrise and sunset
Times for 07-Feb-2023
 Local
(UTC-6)
 Zulu
(UTC)
Morning civil twilight06:3712:37
Sunrise07:0613:06
Sunset17:1723:17
Evening civil twilight17:4623:46

Current date and time
Zulu (UTC)  07-Feb-2023 06:46:24
Local (UTC-6)  07-Feb-2023 00:46:24
 
METAR
KMSN 
13nm N 
070553Z AUTO 19010KT 10SM OVC035 06/01 A2965 RMK AO2 PK WND 17028/0501 RAB19E36 SLP046 P0002 60002 T00560006 10056 20033 400561133 56029
KC29 
14nm NW 
070635Z AUTO 18012G20KT 10SM BKN026 OVC031 06/02 A2961 RMK AO1 T00550023
KEFT 
21nm SW 
070635Z AUTO 20015G21KT 10SM OVC025 05/02 A2964 RMK AO2 T00510020
KJVL 
23nm SE 
070635Z AUTO 19015G23KT 10SM OVC030 06/01 A2967 RMK AO2
TAF
KMSN 
13nm N 
070600Z 0706/0806 17018G33KT P6SM VCSH OVC028 WS020/20055KT FM070700 18016G28KT P6SM BKN014 WS020/21050KT FM070900 25011G24KT P6SM OVC008 FM071500 27010G22KT P6SM OVC011 FM071900 29010G19KT P6SM BKN023 FM072000 28010G19KT P6SM BKN060 FM080000 27005KT P6SM FEW210
NOTAMs
Click for the latest NOTAMs
NOTAMs are issued by the DoD/FAA and will open in a separate window not controlled by AirNav.

 

 
 

Would you like to see your business listed on this page?

 If your business provides an interesting product or service to pilots, flight crews, aircraft, or users of the Spiegel Field Airport, you should consider listing it here.  To start the listing process, click on the button below
 
Add a business
 

Other Pages about Spiegel Field Airport

Update a link
 
Copyright © AirNav, LLC. All rights reserved. Privacy Policy  Contact